Elizabeth Mc Allister — WDB7652 — position and weather

sailwx.info

Track history (hours):
 
Tides and Currents Weather Stations Pressure Air Temp Water Temp Dewpoint Dewpoint Depression Visibility Wind Speed Wind Dir Waves Ship Positions

Elizabeth Mc Allister

Owner: MC ALLISTER TOWING & TRANSPORTATION INC, NEW YORK, NY. More information available from US FCC via Universal Licensing System and Coast Guard Vessel Documentation Center.

Last reported at 2015-May-23 14:33 UTC. Time now 2015-May-23 14:58 UTC.
Position N 40°38' W 074°10'.

Length 31 m.

Type: Tug. MMSI: 366945680.

Date/timePositionNaut miles runAvg speedWind from/ knotsBaromVisibWave heightAir tempDewpointWater temp
2015-May-23 14:33N 40°38' W 074°10'0 0.0
2015-May-23 13:33N 40°38' W 074°10'0 0.0
2015-May-23 12:33N 40°38' W 074°10'3 1.2
2015-May-23 10:17N 40°36' W 074°12'2 1.9
2015-May-23 09:30N 40°38' W 074°12'3 2.7
2015-May-23 08:33N 40°39' W 074°09'1 0.8
2015-May-23 07:33N 40°39' W 074°09'1 1.3
2015-May-23 06:33N 40°38' W 074°10'0 0.0
2015-May-23 05:33N 40°38' W 074°10'0 0.0
2015-May-23 04:33N 40°38' W 074°10'0 0.0
2015-May-23 03:33N 40°38' W 074°10'0 0.0
2015-May-23 02:33N 40°38' W 074°10'0 0.0
2015-May-23 01:33N 40°38' W 074°10'0 0.0
2015-May-23 00:33N 40°38' W 074°10'0 0.0
2015-May-22 23:33N 40°38' W 074°10'0 0.0
2015-May-22 22:33N 40°38' W 074°10'0 0.0
2015-May-22 21:33N 40°38' W 074°10'2 2.3
2015-May-22 20:33N 40°40' W 074°08'2 1.6
2015-May-22 19:33N 40°42' W 074°09'0 0.0
2015-May-22 18:33N 40°42' W 074°09'3 3.1
2015-May-22 17:30N 40°39' W 074°09'1 1.4
2015-May-22 16:33N 40°39' W 074°07'3 2.5
2015-May-22 15:33N 40°41' W 074°09'2 2.0
2015-May-22 14:22N 40°39' W 074°08'2 2.0
2015-May-22 13:33N 40°38' W 074°10'0 0.0
2015-May-22 12:33N 40°38' W 074°10'2 2.4
2015-May-22 11:33N 40°41' W 074°08'2 1.7
2015-May-22 10:33N 40°39' W 074°09'2 1.9
2015-May-22 09:33N 40°41' W 074°09'1 1.1
2015-May-22 08:33N 40°40' W 074°08'2 1.7
2015-May-22 07:33N 40°38' W 074°10'0 0.0
2015-May-22 06:33N 40°38' W 074°10'0 0.0
2015-May-22 05:33N 40°38' W 074°10'0 0.0
2015-May-22 04:33N 40°38' W 074°10'0 0.0
2015-May-22 03:33N 40°38' W 074°10'6 3.0
2015-May-22 01:30N 40°33' W 074°15'0 0.0
2015-May-22 00:23N 40°33' W 074°15'0 0.0
2015-May-21 23:05N 40°33' W 074°14'0 0.0
2015-May-21 22:21N 40°33' W 074°14'3 4.2
2015-May-21 21:33N 40°36' W 074°12'3 2.8
2015-May-21 20:33N 40°38' W 074°10'0 0.0
2015-May-21 19:33N 40°38' W 074°10'5 2.5
2015-May-21 17:33N 40°40' W 074°04'4 3.7
2015-May-21 16:33N 40°42' W 073°60'2 2.2
2015-May-21 15:33N 40°40' W 074°00'1 1.2
2015-May-21 14:33N 40°40' W 074°02'1 0.8
2015-May-21 13:33N 40°40' W 074°01'3 2.8
2015-May-21 12:33N 40°42' W 073°60'5 5.2
2015-May-21 11:33N 40°47' W 073°56'2 1.8
2015-May-21 10:33N 40°48' W 073°54'0 0.0
2015-May-21 09:29N 40°48' W 073°54'0 0.0
2015-May-21 08:33N 40°48' W 073°54'0 0.0
2015-May-21 07:33N 40°48' W 073°54'0 0.0
2015-May-21 06:33N 40°48' W 073°54'0 0.0
2015-May-21 05:33N 40°48' W 073°54'0 0.0
2015-May-21 04:33N 40°48' W 073°54'0 0.0
2015-May-21 03:33N 40°48' W 073°54'0 0.0
2015-May-21 02:33N 40°48' W 073°54'0 0.0
2015-May-21 01:33N 40°48' W 073°54'0 0.0
2015-May-21 00:32N 40°48' W 073°54'0 0.0
2015-May-20 23:33N 40°48' W 073°54'2 2.3
2015-May-20 22:33N 40°47' W 073°56'6 5.6
2015-May-20 21:33N 40°42' W 074°00'4 3.6
2015-May-20 20:33N 40°40' W 074°04'0 0.0
2015-May-20 19:33N 40°40' W 074°04'2 2.4
2015-May-20 18:33N 40°42' W 074°02'5 4.8
2015-May-20 17:33N 40°46' W 074°00'5 5.1
2015-May-20 16:33N 40°51' W 073°57'0 0.0
2015-May-20 15:33N 40°51' W 073°57'1 0.9
2015-May-20 14:34N 40°50' W 073°57'7 7.3
2015-May-20 13:33N 40°43' W 074°01'8 7.9
2015-May-20 12:33N 40°38' W 074°10'0 0.0
2015-May-20 11:33N 40°38' W 074°10'0 0.0
2015-May-20 10:33N 40°38' W 074°10'0 0.0
2015-May-20 09:33N 40°38' W 074°10'0 0.0
2015-May-20 08:33N 40°38' W 074°10'0 0.0
2015-May-20 07:33N 40°38' W 074°10'0 0.0
2015-May-20 06:33N 40°38' W 074°10'0 0.0
2015-May-20 05:33N 40°38' W 074°10'0 0.0
2015-May-20 04:33N 40°38' W 074°10'0 0.0
2015-May-20 03:33N 40°38' W 074°10'2 1.9
2015-May-20 02:31N 40°39' W 074°07'1 1.2
2015-May-20 01:33N 40°39' W 074°06'1 0.7
2015-May-20 00:33N 40°39' W 074°07'2 2.5
2015-May-19 23:33N 40°38' W 074°10'0 0.0
2015-May-19 22:33N 40°38' W 074°10'0 0.0
2015-May-19 21:33N 40°38' W 074°10'0 0.0
2015-May-19 20:33N 40°38' W 074°10'0 0.0
2015-May-19 19:33N 40°38' W 074°10'0 0.0
2015-May-19 18:33N 40°38' W 074°10'0 0.0
2015-May-19 17:33N 40°38' W 074°10'2 1.8
2015-May-19 16:33N 40°40' W 074°08'2 1.7
2015-May-19 15:33N 40°42' W 074°08'0 0.0
2015-May-19 14:33N 40°42' W 074°08'0 0.0
2015-May-19 13:33N 40°42' W 074°08'0 0.0
2015-May-19 12:33N 40°42' W 074°08'0 0.0
2015-May-19 11:33N 40°42' W 074°08'0 0.4
2015-May-19 10:33N 40°41' W 074°08'3 3.0
2015-May-19 09:33N 40°39' W 074°05'1 1.2
2015-May-19 08:33N 40°39' W 074°07'2 2.2
2015-May-19 07:33N 40°38' W 074°10'0 0.0
2015-May-19 06:33N 40°38' W 074°10'0 0.0
2015-May-19 05:33N 40°38' W 074°10'0 0.0
2015-May-19 04:33N 40°38' W 074°10'0 0.0
2015-May-19 03:33N 40°38' W 074°10'0 0.3
2015-May-19 02:33N 40°38' W 074°09'0 0.4
2015-May-19 01:32N 40°39' W 074°09'1 0.8
2015-May-19 00:33N 40°38' W 074°10'0 0.0
2015-May-18 23:33N 40°38' W 074°10'0 0.0
2015-May-18 22:33N 40°38' W 074°10'2 2.4
2015-May-18 21:33N 40°41' W 074°08'2 2.0
2015-May-18 20:33N 40°39' W 074°08'4 4.2
2015-May-18 19:33N 40°36' W 074°03'6 5.7
2015-May-18 18:33N 40°38' W 074°10'0 0.1
2015-May-18 17:33N 40°38' W 074°10'0 0.0
2015-May-18 16:33N 40°38' W 074°10'0 0.0
2015-May-18 15:33N 40°38' W 074°10'1 1.4
2015-May-18 14:33N 40°40' W 074°09'4 4.4
2015-May-18 13:33N 40°38' W 074°03'2 2.5
2015-May-18 12:33N 40°39' W 074°06'3 2.8
2015-May-18 11:33N 40°38' W 074°10'0 0.0
2015-May-18 10:33N 40°38' W 074°10'0 0.0
2015-May-18 09:33N 40°38' W 074°10'0 0.0
2015-May-18 08:33N 40°38' W 074°10'0 0.0
2015-May-18 07:33N 40°38' W 074°10'0 0.0
2015-May-18 06:33N 40°38' W 074°10'0 0.0
2015-May-18 05:33N 40°38' W 074°10'0 0.0
2015-May-18 04:33N 40°38' W 074°10'0 0.0
2015-May-18 03:33N 40°38' W 074°10'0 0.0
2015-May-18 02:33N 40°38' W 074°10'1 0.7
2015-May-18 01:33N 40°39' W 074°09'2 2.0
2015-May-18 00:33N 40°41' W 074°09'2 2.3
2015-May-17 23:33N 40°39' W 074°08'1 1.3
2015-May-17 22:33N 40°38' W 074°10'0 0.0
2015-May-17 21:33N 40°38' W 074°10'0 0.0
2015-May-17 20:33N 40°38' W 074°10'0 0.0
2015-May-17 19:33N 40°38' W 074°10'0 0.0
2015-May-17 18:33N 40°38' W 074°10'0 0.0
2015-May-17 17:33N 40°38' W 074°10'0 0.0
2015-May-17 16:33N 40°38' W 074°10'0 0.0
2015-May-17 15:33N 40°38' W 074°10'1 0.6
2015-May-17 14:24N 40°39' W 074°11'2 1.3
2015-May-17 12:33N 40°37' W 074°12'4 4.1
2015-May-17 11:33N 40°40' W 074°09'3 3.4
2015-May-17 10:33N 40°38' W 074°12'0 0.5
2015-May-17 09:33N 40°38' W 074°12'2 1.7
2015-May-17 08:33N 40°38' W 074°10'0 0.0
2015-May-17 07:33N 40°38' W 074°10'0 0.0
2015-May-17 06:33N 40°38' W 074°10'0 0.0
2015-May-17 05:33N 40°38' W 074°10'0 0.0
2015-May-17 04:33N 40°38' W 074°10'0 0.0
2015-May-17 03:33N 40°38' W 074°10'0 0.0
2015-May-17 02:33N 40°38' W 074°10'0 0.0
2015-May-17 01:33N 40°38' W 074°10'0 0.0
2015-May-17 00:33N 40°38' W 074°10'0 0.0
2015-May-16 23:33N 40°38' W 074°10'0 0.0
2015-May-16 22:33N 40°38' W 074°10'0 0.0
2015-May-16 21:33N 40°38' W 074°10'0 0.0
2015-May-16 20:33N 40°38' W 074°10'0 0.0
2015-May-16 19:33N 40°38' W 074°10'0 0.0
2015-May-16 18:33N 40°38' W 074°10'0 0.0
2015-May-16 17:33N 40°38' W 074°10'0 0.0
2015-May-16 16:33N 40°38' W 074°10'0 0.0
2015-May-16 15:33N 40°38' W 074°10'0 0.0
2015-May-16 14:33N 40°38' W 074°10'2 2.0
2015-May-16 13:30N 40°37' W 074°12'4 1.1
2015-May-16 10:17N 40°34' W 074°13'5 7.1
2015-May-16 09:33N 40°38' W 074°10'0 0.0
2015-May-16 08:33N 40°38' W 074°10'0 0.0
2015-May-16 07:34N 40°38' W 074°10'0 0.0
2015-May-16 06:33N 40°38' W 074°10'0 0.0
2015-May-16 05:33N 40°38' W 074°10'0 0.0
2015-May-16 04:33N 40°38' W 074°10'0 0.0
2015-May-16 03:33N 40°38' W 074°10'0 0.0
2015-May-16 02:33N 40°38' W 074°10'0 0.0
2015-May-16 01:33N 40°38' W 074°10'0 0.0
2015-May-16 00:33N 40°38' W 074°10'1 1.3
2015-May-15 23:33N 40°40' W 074°09'2 1.7
2015-May-15 22:29N 40°41' W 074°08'3 2.9
2015-May-15 21:31N 40°39' W 074°09'1 0.6
2015-May-15 20:33N 40°38' W 074°10'0 0.0
2015-May-15 19:28N 40°38' W 074°10'0 0.0
2015-May-15 18:33N 40°38' W 074°10'0 0.0
2015-May-15 17:33N 40°38' W 074°10'2 1.5
2015-May-15 16:33N 40°40' W 074°09'1 0.8
2015-May-15 15:33N 40°40' W 074°08'4 4.3
2015-May-15 14:33N 40°38' W 074°03'5 4.5
2015-May-15 13:33N 40°38' W 074°09'0 0.5
2015-May-15 12:33N 40°38' W 074°10'2 2.3
2015-May-15 11:33N 40°40' W 074°08'2 1.9
2015-May-15 10:33N 40°39' W 074°08'5 4.5
2015-May-15 09:33N 40°37' W 074°03'5 5.5
2015-May-15 08:33N 40°38' W 074°10'0 0.0
2015-May-15 07:33N 40°38' W 074°10'0 0.0
2015-May-15 06:33N 40°38' W 074°10'0 0.0
2015-May-15 05:33N 40°38' W 074°10'0 0.0
2015-May-15 04:33N 40°38' W 074°10'0 0.0
2015-May-15 03:33N 40°38' W 074°10'0 0.0
2015-May-15 02:33N 40°38' W 074°10'0 0.0
2015-May-15 01:33N 40°38' W 074°10'0 0.0
2015-May-15 00:33N 40°38' W 074°10'0 0.0
2015-May-14 23:33N 40°38' W 074°10'0 0.0
2015-May-14 22:33N 40°38' W 074°10'3 2.1
2015-May-14 21:11N 40°39' W 074°06'2 2.6
2015-May-14 20:33N 40°39' W 074°04'1 1.3
2015-May-14 19:26N 40°39' W 074°06'2 2.5
2015-May-14 18:33N 40°37' W 074°04'0 0.4
2015-May-14 17:33N 40°38' W 074°04'2 2.2
2015-May-14 16:33N 40°40' W 074°04'1 0.6
2015-May-14 15:33N 40°40' W 074°05'4 1.0
2015-May-14 11:23N 40°38' W 074°10'0 0.0
2015-May-14 08:24N 40°38' W 074°10'0 0.0
2015-May-14 07:33N 40°38' W 074°10'0 0.0
2015-May-14 06:33N 40°38' W 074°10'0 0.0
2015-May-14 05:33N 40°38' W 074°10'0 0.0
2015-May-14 04:33N 40°38' W 074°10'0 0.0
2015-May-14 03:33N 40°38' W 074°10'2 2.2
2015-May-14 02:32N 40°39' W 074°07'0 0.3
2015-May-14 01:33N 40°39' W 074°07'0 0.0
2015-May-14 00:32N 40°39' W 074°07'1 0.7
2015-May-13 23:33N 40°39' W 074°07'8 7.8
2015-May-13 22:33N 40°43' W 073°58'7 7.3
2015-May-13 21:33N 40°36' W 074°03'9 7.7
2015-May-13 20:26N 40°27' W 074°03'  
Track history (hours):
 
Tides and Currents Weather Stations Pressure Air Temp Water Temp Dewpoint Dewpoint Depression Visibility Wind Speed Wind Dir Waves Ship Positions

Elizabeth Mc Allister

Owner: MC ALLISTER TOWING & TRANSPORTATION INC, NEW YORK, NY. More information available from US FCC via Universal Licensing System and Coast Guard Vessel Documentation Center.

Last reported at 2015-May-23 14:33 UTC. Time now 2015-May-23 14:58 UTC.
Position N 40°38' W 074°10'.

Length 31 m.

Type: Tug. MMSI: 366945680.

Date/timePositionNaut miles runAvg speedWind from/ knotsBaromVisibWave heightAir tempDewpointWater temp
2015-May-23 14:33N 40°38' W 074°10'0 0.0
2015-May-23 13:33N 40°38' W 074°10'0 0.0
2015-May-23 12:33N 40°38' W 074°10'3 1.2
2015-May-23 10:17N 40°36' W 074°12'2 1.9
2015-May-23 09:30N 40°38' W 074°12'3 2.7
2015-May-23 08:33N 40°39' W 074°09'1 0.8
2015-May-23 07:33N 40°39' W 074°09'1 1.3
2015-May-23 06:33N 40°38' W 074°10'0 0.0
2015-May-23 05:33N 40°38' W 074°10'0 0.0
2015-May-23 04:33N 40°38' W 074°10'0 0.0
2015-May-23 03:33N 40°38' W 074°10'0 0.0
2015-May-23 02:33N 40°38' W 074°10'0 0.0
2015-May-23 01:33N 40°38' W 074°10'0 0.0
2015-May-23 00:33N 40°38' W 074°10'0 0.0
2015-May-22 23:33N 40°38' W 074°10'0 0.0
2015-May-22 22:33N 40°38' W 074°10'0 0.0
2015-May-22 21:33N 40°38' W 074°10'2 2.3
2015-May-22 20:33N 40°40' W 074°08'2 1.6
2015-May-22 19:33N 40°42' W 074°09'0 0.0
2015-May-22 18:33N 40°42' W 074°09'3 3.1
2015-May-22 17:30N 40°39' W 074°09'1 1.4
2015-May-22 16:33N 40°39' W 074°07'3 2.5
2015-May-22 15:33N 40°41' W 074°09'2 2.0
2015-May-22 14:22N 40°39' W 074°08'2 2.0
2015-May-22 13:33N 40°38' W 074°10'0 0.0
2015-May-22 12:33N 40°38' W 074°10'2 2.4
2015-May-22 11:33N 40°41' W 074°08'2 1.7
2015-May-22 10:33N 40°39' W 074°09'2 1.9
2015-May-22 09:33N 40°41' W 074°09'1 1.1
2015-May-22 08:33N 40°40' W 074°08'2 1.7
2015-May-22 07:33N 40°38' W 074°10'0 0.0
2015-May-22 06:33N 40°38' W 074°10'0 0.0
2015-May-22 05:33N 40°38' W 074°10'0 0.0
2015-May-22 04:33N 40°38' W 074°10'0 0.0
2015-May-22 03:33N 40°38' W 074°10'6 3.0
2015-May-22 01:30N 40°33' W 074°15'0 0.0
2015-May-22 00:23N 40°33' W 074°15'0 0.0
2015-May-21 23:05N 40°33' W 074°14'0 0.0
2015-May-21 22:21N 40°33' W 074°14'3 4.2
2015-May-21 21:33N 40°36' W 074°12'3 2.8
2015-May-21 20:33N 40°38' W 074°10'0 0.0
2015-May-21 19:33N 40°38' W 074°10'5 2.5
2015-May-21 17:33N 40°40' W 074°04'4 3.7
2015-May-21 16:33N 40°42' W 073°60'2 2.2
2015-May-21 15:33N 40°40' W 074°00'1 1.2
2015-May-21 14:33N 40°40' W 074°02'1 0.8
2015-May-21 13:33N 40°40' W 074°01'3 2.8
2015-May-21 12:33N 40°42' W 073°60'5 5.2
2015-May-21 11:33N 40°47' W 073°56'2 1.8
2015-May-21 10:33N 40°48' W 073°54'0 0.0
2015-May-21 09:29N 40°48' W 073°54'0 0.0
2015-May-21 08:33N 40°48' W 073°54'0 0.0
2015-May-21 07:33N 40°48' W 073°54'0 0.0
2015-May-21 06:33N 40°48' W 073°54'0 0.0
2015-May-21 05:33N 40°48' W 073°54'0 0.0
2015-May-21 04:33N 40°48' W 073°54'0 0.0
2015-May-21 03:33N 40°48' W 073°54'0 0.0
2015-May-21 02:33N 40°48' W 073°54'0 0.0
2015-May-21 01:33N 40°48' W 073°54'0 0.0
2015-May-21 00:32N 40°48' W 073°54'0 0.0
2015-May-20 23:33N 40°48' W 073°54'2 2.3
2015-May-20 22:33N 40°47' W 073°56'6 5.6
2015-May-20 21:33N 40°42' W 074°00'4 3.6
2015-May-20 20:33N 40°40' W 074°04'0 0.0
2015-May-20 19:33N 40°40' W 074°04'2 2.4
2015-May-20 18:33N 40°42' W 074°02'5 4.8
2015-May-20 17:33N 40°46' W 074°00'5 5.1
2015-May-20 16:33N 40°51' W 073°57'0 0.0
2015-May-20 15:33N 40°51' W 073°57'1 0.9
2015-May-20 14:34N 40°50' W 073°57'7 7.3
2015-May-20 13:33N 40°43' W 074°01'8 7.9
2015-May-20 12:33N 40°38' W 074°10'0 0.0
2015-May-20 11:33N 40°38' W 074°10'0 0.0
2015-May-20 10:33N 40°38' W 074°10'0 0.0
2015-May-20 09:33N 40°38' W 074°10'0 0.0
2015-May-20 08:33N 40°38' W 074°10'0 0.0
2015-May-20 07:33N 40°38' W 074°10'0 0.0
2015-May-20 06:33N 40°38' W 074°10'0 0.0
2015-May-20 05:33N 40°38' W 074°10'0 0.0
2015-May-20 04:33N 40°38' W 074°10'0 0.0
2015-May-20 03:33N 40°38' W 074°10'2 1.9
2015-May-20 02:31N 40°39' W 074°07'1 1.2
2015-May-20 01:33N 40°39' W 074°06'1 0.7
2015-May-20 00:33N 40°39' W 074°07'2 2.5
2015-May-19 23:33N 40°38' W 074°10'0 0.0
2015-May-19 22:33N 40°38' W 074°10'0 0.0
2015-May-19 21:33N 40°38' W 074°10'0 0.0
2015-May-19 20:33N 40°38' W 074°10'0 0.0
2015-May-19 19:33N 40°38' W 074°10'0 0.0
2015-May-19 18:33N 40°38' W 074°10'0 0.0
2015-May-19 17:33N 40°38' W 074°10'2 1.8
2015-May-19 16:33N 40°40' W 074°08'2 1.7
2015-May-19 15:33N 40°42' W 074°08'0 0.0
2015-May-19 14:33N 40°42' W 074°08'0 0.0
2015-May-19 13:33N 40°42' W 074°08'0 0.0
2015-May-19 12:33N 40°42' W 074°08'0 0.0
2015-May-19 11:33N 40°42' W 074°08'0 0.4
2015-May-19 10:33N 40°41' W 074°08'3 3.0
2015-May-19 09:33N 40°39' W 074°05'1 1.2
2015-May-19 08:33N 40°39' W 074°07'2 2.2
2015-May-19 07:33N 40°38' W 074°10'0 0.0
2015-May-19 06:33N 40°38' W 074°10'0 0.0
2015-May-19 05:33N 40°38' W 074°10'0 0.0
2015-May-19 04:33N 40°38' W 074°10'0 0.0
2015-May-19 03:33N 40°38' W 074°10'0 0.3
2015-May-19 02:33N 40°38' W 074°09'0 0.4
2015-May-19 01:32N 40°39' W 074°09'1 0.8
2015-May-19 00:33N 40°38' W 074°10'0 0.0
2015-May-18 23:33N 40°38' W 074°10'0 0.0
2015-May-18 22:33N 40°38' W 074°10'2 2.4
2015-May-18 21:33N 40°41' W 074°08'2 2.0
2015-May-18 20:33N 40°39' W 074°08'4 4.2
2015-May-18 19:33N 40°36' W 074°03'6 5.7
2015-May-18 18:33N 40°38' W 074°10'0 0.1
2015-May-18 17:33N 40°38' W 074°10'0 0.0
2015-May-18 16:33N 40°38' W 074°10'0 0.0
2015-May-18 15:33N 40°38' W 074°10'1 1.4
2015-May-18 14:33N 40°40' W 074°09'4 4.4
2015-May-18 13:33N 40°38' W 074°03'2 2.5
2015-May-18 12:33N 40°39' W 074°06'3 2.8
2015-May-18 11:33N 40°38' W 074°10'0 0.0
2015-May-18 10:33N 40°38' W 074°10'0 0.0
2015-May-18 09:33N 40°38' W 074°10'0 0.0
2015-May-18 08:33N 40°38' W 074°10'0 0.0
2015-May-18 07:33N 40°38' W 074°10'0 0.0
2015-May-18 06:33N 40°38' W 074°10'0 0.0
2015-May-18 05:33N 40°38' W 074°10'0 0.0
2015-May-18 04:33N 40°38' W 074°10'0 0.0
2015-May-18 03:33N 40°38' W 074°10'0 0.0
2015-May-18 02:33N 40°38' W 074°10'1 0.7
2015-May-18 01:33N 40°39' W 074°09'2 2.0
2015-May-18 00:33N 40°41' W 074°09'2 2.3
2015-May-17 23:33N 40°39' W 074°08'1 1.3
2015-May-17 22:33N 40°38' W 074°10'0 0.0
2015-May-17 21:33N 40°38' W 074°10'0 0.0
2015-May-17 20:33N 40°38' W 074°10'0 0.0
2015-May-17 19:33N 40°38' W 074°10'0 0.0
2015-May-17 18:33N 40°38' W 074°10'0 0.0
2015-May-17 17:33N 40°38' W 074°10'0 0.0
2015-May-17 16:33N 40°38' W 074°10'0 0.0
2015-May-17 15:33N 40°38' W 074°10'1 0.6
2015-May-17 14:24N 40°39' W 074°11'2 1.3
2015-May-17 12:33N 40°37' W 074°12'4 4.1
2015-May-17 11:33N 40°40' W 074°09'3 3.4
2015-May-17 10:33N 40°38' W 074°12'0 0.5
2015-May-17 09:33N 40°38' W 074°12'2 1.7
2015-May-17 08:33N 40°38' W 074°10'0 0.0
2015-May-17 07:33N 40°38' W 074°10'0 0.0
2015-May-17 06:33N 40°38' W 074°10'0 0.0
2015-May-17 05:33N 40°38' W 074°10'0 0.0
2015-May-17 04:33N 40°38' W 074°10'0 0.0
2015-May-17 03:33N 40°38' W 074°10'0 0.0
2015-May-17 02:33N 40°38' W 074°10'0 0.0
2015-May-17 01:33N 40°38' W 074°10'0 0.0
2015-May-17 00:33N 40°38' W 074°10'0 0.0
2015-May-16 23:33N 40°38' W 074°10'0 0.0
2015-May-16 22:33N 40°38' W 074°10'0 0.0
2015-May-16 21:33N 40°38' W 074°10'0 0.0
2015-May-16 20:33N 40°38' W 074°10'0 0.0
2015-May-16 19:33N 40°38' W 074°10'0 0.0
2015-May-16 18:33N 40°38' W 074°10'0 0.0
2015-May-16 17:33N 40°38' W 074°10'0 0.0
2015-May-16 16:33N 40°38' W 074°10'0 0.0
2015-May-16 15:33N 40°38' W 074°10'0 0.0
2015-May-16 14:33N 40°38' W 074°10'2 2.0
2015-May-16 13:30N 40°37' W 074°12'4 1.1
2015-May-16 10:17N 40°34' W 074°13'5 7.1
2015-May-16 09:33N 40°38' W 074°10'0 0.0
2015-May-16 08:33N 40°38' W 074°10'0 0.0
2015-May-16 07:34N 40°38' W 074°10'0 0.0
2015-May-16 06:33N 40°38' W 074°10'0 0.0
2015-May-16 05:33N 40°38' W 074°10'0 0.0
2015-May-16 04:33N 40°38' W 074°10'0 0.0
2015-May-16 03:33N 40°38' W 074°10'0 0.0
2015-May-16 02:33N 40°38' W 074°10'0 0.0
2015-May-16 01:33N 40°38' W 074°10'0 0.0
2015-May-16 00:33N 40°38' W 074°10'1 1.3
2015-May-15 23:33N 40°40' W 074°09'2 1.7
2015-May-15 22:29N 40°41' W 074°08'3 2.9
2015-May-15 21:31N 40°39' W 074°09'1 0.6
2015-May-15 20:33N 40°38' W 074°10'0 0.0
2015-May-15 19:28N 40°38' W 074°10'0 0.0
2015-May-15 18:33N 40°38' W 074°10'0 0.0
2015-May-15 17:33N 40°38' W 074°10'2 1.5
2015-May-15 16:33N 40°40' W 074°09'1 0.8
2015-May-15 15:33N 40°40' W 074°08'4 4.3
2015-May-15 14:33N 40°38' W 074°03'5 4.5
2015-May-15 13:33N 40°38' W 074°09'0 0.5
2015-May-15 12:33N 40°38' W 074°10'2 2.3
2015-May-15 11:33N 40°40' W 074°08'2 1.9
2015-May-15 10:33N 40°39' W 074°08'5 4.5
2015-May-15 09:33N 40°37' W 074°03'5 5.5
2015-May-15 08:33N 40°38' W 074°10'0 0.0
2015-May-15 07:33N 40°38' W 074°10'0 0.0
2015-May-15 06:33N 40°38' W 074°10'0 0.0
2015-May-15 05:33N 40°38' W 074°10'0 0.0
2015-May-15 04:33N 40°38' W 074°10'0 0.0
2015-May-15 03:33N 40°38' W 074°10'0 0.0
2015-May-15 02:33N 40°38' W 074°10'0 0.0
2015-May-15 01:33N 40°38' W 074°10'0 0.0
2015-May-15 00:33N 40°38' W 074°10'0 0.0
2015-May-14 23:33N 40°38' W 074°10'0 0.0
2015-May-14 22:33N 40°38' W 074°10'3 2.1
2015-May-14 21:11N 40°39' W 074°06'2 2.6
2015-May-14 20:33N 40°39' W 074°04'1 1.3
2015-May-14 19:26N 40°39' W 074°06'2 2.5
2015-May-14 18:33N 40°37' W 074°04'0 0.4
2015-May-14 17:33N 40°38' W 074°04'2 2.2
2015-May-14 16:33N 40°40' W 074°04'1 0.6
2015-May-14 15:33N 40°40' W 074°05'4 1.0
2015-May-14 11:23N 40°38' W 074°10'0 0.0
2015-May-14 08:24N 40°38' W 074°10'0 0.0
2015-May-14 07:33N 40°38' W 074°10'0 0.0
2015-May-14 06:33N 40°38' W 074°10'0 0.0
2015-May-14 05:33N 40°38' W 074°10'0 0.0
2015-May-14 04:33N 40°38' W 074°10'0 0.0
2015-May-14 03:33N 40°38' W 074°10'2 2.2
2015-May-14 02:32N 40°39' W 074°07'0 0.3
2015-May-14 01:33N 40°39' W 074°07'0 0.0
2015-May-14 00:32N 40°39' W 074°07'1 0.7
2015-May-13 23:33N 40°39' W 074°07'8 7.8
2015-May-13 22:33N 40°43' W 073°58'7 7.3
2015-May-13 21:33N 40°36' W 074°03'9 7.7
2015-May-13 20:26N 40°27' W 074°03'  

Dump ship's entire track history